sensor_id;sensor_type;location;lat;lon;timestamp;temperature;humidity
20712;DHT22;10517;50.742;4.224;2022-10-26T00:00:23;15.40;99.90
20712;DHT22;10517;50.742;4.224;2022-10-26T00:02:48;15.30;99.90
20712;DHT22;10517;50.742;4.224;2022-10-26T00:05:14;15.30;99.90
20712;DHT22;10517;50.742;4.224;2022-10-26T00:07:40;15.30;99.90
20712;DHT22;10517;50.742;4.224;2022-10-26T00:10:05;15.40;99.90
20712;DHT22;10517;50.742;4.224;2022-10-26T00:12:31;15.30;99.90
20712;DHT22;10517;50.742;4.224;2022-10-26T00:14:57;15.20;99.90
20712;DHT22;10517;50.742;4.224;2022-10-26T00:17:22;15.20;99.90
20712;DHT22;10517;50.742;4.224;2022-10-26T00:19:48;15.20;99.90
20712;DHT22;10517;50.742;4.224;2022-10-26T00:22:14;15.30;99.90
20712;DHT22;10517;50.742;4.224;2022-10-26T00:24:39;15.40;99.90
20712;DHT22;10517;50.742;4.224;2022-10-26T00:27:05;15.40;99.90
20712;DHT22;10517;50.742;4.224;2022-10-26T00:29:30;15.40;99.90
20712;DHT22;10517;50.742;4.224;2022-10-26T00:31:56;15.40;99.90
20712;DHT22;10517;50.742;4.224;2022-10-26T00:34:21;15.30;99.90
20712;DHT22;10517;50.742;4.224;2022-10-26T00:36:47;15.30;99.90
20712;DHT22;10517;50.742;4.224;2022-10-26T00:39:12;15.20;99.90
20712;DHT22;10517;50.742;4.224;2022-10-26T00:41:38;15.30;99.90
20712;DHT22;10517;50.742;4.224;2022-10-26T00:47:40;15.30;99.90
20712;DHT22;10517;50.742;4.224;2022-10-26T00:50:14;15.40;99.90
20712;DHT22;10517;50.742;4.224;2022-10-26T00:52:42;15.30;99.90
20712;DHT22;10517;50.742;4.224;2022-10-26T00:55:08;15.20;99.90
20712;DHT22;10517;50.742;4.224;2022-10-26T00:57:35;15.10;99.90
20712;DHT22;10517;50.742;4.224;2022-10-26T01:00:02;15.30;99.90
20712;DHT22;10517;50.742;4.224;2022-10-26T01:02:28;15.20;99.90
20712;DHT22;10517;50.742;4.224;2022-10-26T01:04:54;15.10;99.90
20712;DHT22;10517;50.742;4.224;2022-10-26T01:07:21;15.10;99.90
20712;DHT22;10517;50.742;4.224;2022-10-26T01:09:47;15.20;99.90
20712;DHT22;10517;50.742;4.224;2022-10-26T01:12:13;15.10;99.90
20712;DHT22;10517;50.742;4.224;2022-10-26T01:14:39;15.10;99.90
20712;DHT22;10517;50.742;4.224;2022-10-26T01:17:28;15.10;99.90
20712;DHT22;10517;50.742;4.224;2022-10-26T01:20:19;15.10;99.90
20712;DHT22;10517;50.742;4.224;2022-10-26T01:25:39;15.20;99.90
20712;DHT22;10517;50.742;4.224;2022-10-26T01:28:19;15.20;99.90
20712;DHT22;10517;50.742;4.224;2022-10-26T01:30:47;15.30;99.90
20712;DHT22;10517;50.742;4.224;2022-10-26T01:36:22;15.20;99.90
20712;DHT22;10517;50.742;4.224;2022-10-26T01:41:35;15.20;99.90
20712;DHT22;10517;50.742;4.224;2022-10-26T01:44:05;15.20;99.90
20712;DHT22;10517;50.742;4.224;2022-10-26T01:46:35;15.30;99.90
20712;DHT22;10517;50.742;4.224;2022-10-26T01:49:06;15.20;99.90
20712;DHT22;10517;50.742;4.224;2022-10-26T01:51:33;15.30;99.90
20712;DHT22;10517;50.742;4.224;2022-10-26T01:53:59;15.40;99.90
20712;DHT22;10517;50.742;4.224;2022-10-26T01:56:28;15.50;99.90
20712;DHT22;10517;50.742;4.224;2022-10-26T01:59:15;15.40;99.90
20712;DHT22;10517;50.742;4.224;2022-10-26T02:07:01;15.60;99.90
20712;DHT22;10517;50.742;4.224;2022-10-26T02:09:58;15.60;99.90
20712;DHT22;10517;50.742;4.224;2022-10-26T02:17:52;15.80;99.90
20712;DHT22;10517;50.742;4.224;2022-10-26T02:20:43;15.80;99.90
20712;DHT22;10517;50.742;4.224;2022-10-26T02:23:10;15.70;99.90
20712;DHT22;10517;50.742;4.224;2022-10-26T02:25:41;15.70;99.90
20712;DHT22;10517;50.742;4.224;2022-10-26T02:28:12;15.60;99.90
20712;DHT22;10517;50.742;4.224;2022-10-26T02:30:41;15.70;99.90
20712;DHT22;10517;50.742;4.224;2022-10-26T02:33:09;15.80;99.90
20712;DHT22;10517;50.742;4.224;2022-10-26T02:35:37;15.80;99.90
20712;DHT22;10517;50.742;4.224;2022-10-26T02:38:07;15.90;99.90
20712;DHT22;10517;50.742;4.224;2022-10-26T02:40:34;15.80;99.90
20712;DHT22;10517;50.742;4.224;2022-10-26T02:43:05;15.80;99.90
20712;DHT22;10517;50.742;4.224;2022-10-26T02:45:45;15.70;99.90
20712;DHT22;10517;50.742;4.224;2022-10-26T02:48:13;15.70;99.90
20712;DHT22;10517;50.742;4.224;2022-10-26T02:53:41;15.70;99.90
20712;DHT22;10517;50.742;4.224;2022-10-26T02:56:15;15.70;99.90
20712;DHT22;10517;50.742;4.224;2022-10-26T02:58:46;15.70;99.90
20712;DHT22;10517;50.742;4.224;2022-10-26T03:01:13;15.80;99.90
20712;DHT22;10517;50.742;4.224;2022-10-26T03:03:40;15.80;99.90
20712;DHT22;10517;50.742;4.224;2022-10-26T03:06:06;15.90;99.90
20712;DHT22;10517;50.742;4.224;2022-10-26T03:08:31;16.00;99.90
20712;DHT22;10517;50.742;4.224;2022-10-26T03:10:57;16.00;99.90
20712;DHT22;10517;50.742;4.224;2022-10-26T03:13:22;16.00;99.90
20712;DHT22;10517;50.742;4.224;2022-10-26T03:15:48;16.10;99.90
20712;DHT22;10517;50.742;4.224;2022-10-26T03:18:13;16.10;99.90
20712;DHT22;10517;50.742;4.224;2022-10-26T03:20:39;16.20;99.90
20712;DHT22;10517;50.742;4.224;2022-10-26T03:23:07;16.20;99.90
20712;DHT22;10517;50.742;4.224;2022-10-26T03:25:33;16.30;99.90
20712;DHT22;10517;50.742;4.224;2022-10-26T03:28:00;16.30;99.90
20712;DHT22;10517;50.742;4.224;2022-10-26T03:30:27;16.30;99.90
20712;DHT22;10517;50.742;4.224;2022-10-26T03:32:53;16.30;99.90
20712;DHT22;10517;50.742;4.224;2022-10-26T03:35:19;16.40;99.90
20712;DHT22;10517;50.742;4.224;2022-10-26T03:37:44;16.40;99.90
20712;DHT22;10517;50.742;4.224;2022-10-26T03:40:10;16.30;99.90
20712;DHT22;10517;50.742;4.224;2022-10-26T03:42:36;16.20;99.90
20712;DHT22;10517;50.742;4.224;2022-10-26T03:45:03;16.30;99.90
20712;DHT22;10517;50.742;4.224;2022-10-26T03:47:29;16.20;99.90
20712;DHT22;10517;50.742;4.224;2022-10-26T03:49:54;16.10;99.90
20712;DHT22;10517;50.742;4.224;2022-10-26T03:52:20;16.10;99.90
20712;DHT22;10517;50.742;4.224;2022-10-26T03:54:48;16.00;99.90
20712;DHT22;10517;50.742;4.224;2022-10-26T03:57:14;16.00;99.90
20712;DHT22;10517;50.742;4.224;2022-10-26T03:59:39;16.10;99.90
20712;DHT22;10517;50.742;4.224;2022-10-26T04:02:05;16.10;99.90
20712;DHT22;10517;50.742;4.224;2022-10-26T04:04:31;16.10;99.90
20712;DHT22;10517;50.742;4.224;2022-10-26T04:06:56;16.10;99.90
20712;DHT22;10517;50.742;4.224;2022-10-26T04:09:22;16.00;99.90
20712;DHT22;10517;50.742;4.224;2022-10-26T04:11:48;16.00;99.90
20712;DHT22;10517;50.742;4.224;2022-10-26T04:14:13;16.00;99.90
20712;DHT22;10517;50.742;4.224;2022-10-26T04:16:39;16.10;99.90
20712;DHT22;10517;50.742;4.224;2022-10-26T04:19:05;16.00;99.90
20712;DHT22;10517;50.742;4.224;2022-10-26T04:21:30;16.20;99.90
20712;DHT22;10517;50.742;4.224;2022-10-26T04:24:00;16.20;99.90
20712;DHT22;10517;50.742;4.224;2022-10-26T04:26:25;16.20;99.90
20712;DHT22;10517;50.742;4.224;2022-10-26T04:28:51;16.20;99.90
20712;DHT22;10517;50.742;4.224;2022-10-26T04:31:17;16.10;99.90
20712;DHT22;10517;50.742;4.224;2022-10-26T04:33:42;16.20;99.90
20712;DHT22;10517;50.742;4.224;2022-10-26T04:36:08;16.20;99.90
20712;DHT22;10517;50.742;4.224;2022-10-26T04:38:34;16.30;99.90
20712;DHT22;10517;50.742;4.224;2022-10-26T04:40:59;16.10;99.90
20712;DHT22;10517;50.742;4.224;2022-10-26T04:43:25;16.20;99.90
20712;DHT22;10517;50.742;4.224;2022-10-26T04:45:57;16.10;99.90
20712;DHT22;10517;50.742;4.224;2022-10-26T04:48:23;16.10;99.90
20712;DHT22;10517;50.742;4.224;2022-10-26T04:50:49;16.10;99.90
20712;DHT22;10517;50.742;4.224;2022-10-26T04:53:14;16.20;99.90
20712;DHT22;10517;50.742;4.224;2022-10-26T04:55:40;16.10;99.90
20712;DHT22;10517;50.742;4.224;2022-10-26T04:58:05;16.20;99.90
20712;DHT22;10517;50.742;4.224;2022-10-26T05:00:32;16.20;99.90
20712;DHT22;10517;50.742;4.224;2022-10-26T05:02:59;16.20;99.90
20712;DHT22;10517;50.742;4.224;2022-10-26T05:05:25;16.20;99.90
20712;DHT22;10517;50.742;4.224;2022-10-26T05:07:54;16.20;99.90
20712;DHT22;10517;50.742;4.224;2022-10-26T05:10:20;16.20;99.90
20712;DHT22;10517;50.742;4.224;2022-10-26T05:12:53;16.20;99.90
20712;DHT22;10517;50.742;4.224;2022-10-26T05:15:19;16.20;99.90
20712;DHT22;10517;50.742;4.224;2022-10-26T05:17:45;16.20;99.90
20712;DHT22;10517;50.742;4.224;2022-10-26T05:20:10;16.20;99.90
20712;DHT22;10517;50.742;4.224;2022-10-26T05:22:39;16.20;99.90
20712;DHT22;10517;50.742;4.224;2022-10-26T05:25:05;16.20;99.90
20712;DHT22;10517;50.742;4.224;2022-10-26T05:27:30;16.20;99.90
20712;DHT22;10517;50.742;4.224;2022-10-26T05:29:56;16.20;99.90
20712;DHT22;10517;50.742;4.224;2022-10-26T05:32:21;16.20;99.90
20712;DHT22;10517;50.742;4.224;2022-10-26T05:34:47;16.10;99.90
20712;DHT22;10517;50.742;4.224;2022-10-26T05:37:12;16.10;99.90
20712;DHT22;10517;50.742;4.224;2022-10-26T05:39:38;16.10;99.90
20712;DHT22;10517;50.742;4.224;2022-10-26T05:42:04;16.20;99.90
20712;DHT22;10517;50.742;4.224;2022-10-26T05:44:29;16.20;99.90
20712;DHT22;10517;50.742;4.224;2022-10-26T05:46:55;16.10;99.90
20712;DHT22;10517;50.742;4.224;2022-10-26T05:49:20;16.20;99.90
20712;DHT22;10517;50.742;4.224;2022-10-26T05:51:46;16.20;99.90
20712;DHT22;10517;50.742;4.224;2022-10-26T05:54:11;16.20;99.90
20712;DHT22;10517;50.742;4.224;2022-10-26T05:56:39;16.00;99.90
20712;DHT22;10517;50.742;4.224;2022-10-26T05:59:15;16.00;99.90
20712;DHT22;10517;50.742;4.224;2022-10-26T06:04:36;16.10;99.90
20712;DHT22;10517;50.742;4.224;2022-10-26T06:07:14;16.00;99.90
20712;DHT22;10517;50.742;4.224;2022-10-26T06:09:41;16.00;99.90
20712;DHT22;10517;50.742;4.224;2022-10-26T06:12:07;16.00;99.90
20712;DHT22;10517;50.742;4.224;2022-10-26T06:14:34;16.00;99.90
20712;DHT22;10517;50.742;4.224;2022-10-26T06:20:02;15.80;99.90
20712;DHT22;10517;50.742;4.224;2022-10-26T06:22:37;15.80;99.90
20712;DHT22;10517;50.742;4.224;2022-10-26T06:30:36;15.70;99.90
20712;DHT22;10517;50.742;4.224;2022-10-26T06:33:01;15.70;99.90
20712;DHT22;10517;50.742;4.224;2022-10-26T06:38:10;15.80;99.90
20712;DHT22;10517;50.742;4.224;2022-10-26T06:40:39;15.80;99.90
20712;DHT22;10517;50.742;4.224;2022-10-26T06:43:12;15.70;99.90
20712;DHT22;10517;50.742;4.224;2022-10-26T06:45:44;15.70;99.90
20712;DHT22;10517;50.742;4.224;2022-10-26T06:48:18;15.70;99.90
20712;DHT22;10517;50.742;4.224;2022-10-26T06:50:50;15.70;99.90
20712;DHT22;10517;50.742;4.224;2022-10-26T06:53:34;15.60;99.90
20712;DHT22;10517;50.742;4.224;2022-10-26T06:56:00;15.50;99.90
20712;DHT22;10517;50.742;4.224;2022-10-26T06:58:32;15.60;99.90
20712;DHT22;10517;50.742;4.224;2022-10-26T07:00:59;15.60;99.90
20712;DHT22;10517;50.742;4.224;2022-10-26T07:03:25;15.70;99.90
20712;DHT22;10517;50.742;4.224;2022-10-26T07:05:50;15.70;99.90
20712;DHT22;10517;50.742;4.224;2022-10-26T07:08:16;15.70;99.90
20712;DHT22;10517;50.742;4.224;2022-10-26T07:10:42;15.70;99.90
20712;DHT22;10517;50.742;4.224;2022-10-26T07:13:08;15.70;99.90
20712;DHT22;10517;50.742;4.224;2022-10-26T07:15:35;15.70;99.90
20712;DHT22;10517;50.742;4.224;2022-10-26T07:18:02;15.70;99.90
20712;DHT22;10517;50.742;4.224;2022-10-26T07:20:35;15.60;99.90
20712;DHT22;10517;50.742;4.224;2022-10-26T07:23:01;15.60;99.90
20712;DHT22;10517;50.742;4.224;2022-10-26T07:25:27;15.60;99.90
20712;DHT22;10517;50.742;4.224;2022-10-26T07:27:57;15.70;99.90
20712;DHT22;10517;50.742;4.224;2022-10-26T07:30:24;15.80;99.90
20712;DHT22;10517;50.742;4.224;2022-10-26T07:32:49;15.80;99.90
20712;DHT22;10517;50.742;4.224;2022-10-26T07:35:15;15.80;99.90
20712;DHT22;10517;50.742;4.224;2022-10-26T07:37:40;15.70;99.90
20712;DHT22;10517;50.742;4.224;2022-10-26T07:40:06;15.80;99.90
20712;DHT22;10517;50.742;4.224;2022-10-26T07:42:32;15.90;99.90
20712;DHT22;10517;50.742;4.224;2022-10-26T07:44:58;15.90;99.90
20712;DHT22;10517;50.742;4.224;2022-10-26T07:47:24;15.90;99.90
20712;DHT22;10517;50.742;4.224;2022-10-26T07:49:49;16.10;99.90
20712;DHT22;10517;50.742;4.224;2022-10-26T07:52:15;16.10;99.90
20712;DHT22;10517;50.742;4.224;2022-10-26T07:54:40;16.20;99.90
20712;DHT22;10517;50.742;4.224;2022-10-26T07:57:06;16.10;99.90
20712;DHT22;10517;50.742;4.224;2022-10-26T07:59:31;16.30;99.90
20712;DHT22;10517;50.742;4.224;2022-10-26T08:01:57;16.40;99.90
20712;DHT22;10517;50.742;4.224;2022-10-26T08:04:22;16.40;99.90
20712;DHT22;10517;50.742;4.224;2022-10-26T08:06:48;16.50;99.90
20712;DHT22;10517;50.742;4.224;2022-10-26T08:09:14;16.50;99.90
20712;DHT22;10517;50.742;4.224;2022-10-26T08:11:39;16.50;99.90
20712;DHT22;10517;50.742;4.224;2022-10-26T08:14:05;16.70;99.90
20712;DHT22;10517;50.742;4.224;2022-10-26T08:16:30;16.80;99.90
20712;DHT22;10517;50.742;4.224;2022-10-26T08:18:56;16.90;99.90
20712;DHT22;10517;50.742;4.224;2022-10-26T08:21:22;17.00;99.90
20712;DHT22;10517;50.742;4.224;2022-10-26T08:23:48;17.10;99.90
20712;DHT22;10517;50.742;4.224;2022-10-26T08:26:13;17.20;99.90
20712;DHT22;10517;50.742;4.224;2022-10-26T08:28:39;17.20;99.90
20712;DHT22;10517;50.742;4.224;2022-10-26T08:31:05;17.20;99.90
20712;DHT22;10517;50.742;4.224;2022-10-26T08:33:31;17.30;99.90
20712;DHT22;10517;50.742;4.224;2022-10-26T08:35:59;17.40;99.90
20712;DHT22;10517;50.742;4.224;2022-10-26T08:38:25;17.60;99.90
20712;DHT22;10517;50.742;4.224;2022-10-26T08:40:52;17.70;99.90
20712;DHT22;10517;50.742;4.224;2022-10-26T08:43:32;17.80;99.90
20712;DHT22;10517;50.742;4.224;2022-10-26T08:48:32;18.00;99.90
20712;DHT22;10517;50.742;4.224;2022-10-26T08:51:11;18.00;99.90
20712;DHT22;10517;50.742;4.224;2022-10-26T09:01:19;18.40;99.90
20712;DHT22;10517;50.742;4.224;2022-10-26T09:03:45;18.50;99.90
20712;DHT22;10517;50.742;4.224;2022-10-26T09:06:31;18.50;99.90
20712;DHT22;10517;50.742;4.224;2022-10-26T09:10:00;18.50;99.90
20712;DHT22;10517;50.742;4.224;2022-10-26T09:12:07;18.50;99.90
20712;DHT22;10517;50.742;4.224;2022-10-26T09:17:55;18.60;99.90
20712;DHT22;10517;50.742;4.224;2022-10-26T09:23:57;18.60;99.90
20712;DHT22;10517;50.742;4.224;2022-10-26T09:29:14;18.70;99.90
20712;DHT22;10517;50.742;4.224;2022-10-26T09:31:43;18.80;99.90
20712;DHT22;10517;50.742;4.224;2022-10-26T09:34:27;18.90;99.90
20712;DHT22;10517;50.742;4.224;2022-10-26T09:36:54;19.10;99.90
20712;DHT22;10517;50.742;4.224;2022-10-26T09:39:34;19.20;99.90
20712;DHT22;10517;50.742;4.224;2022-10-26T09:42:11;19.20;99.90
20712;DHT22;10517;50.742;4.224;2022-10-26T09:44:52;19.10;99.90
20712;DHT22;10517;50.742;4.224;2022-10-26T09:47:30;19.20;99.90
20712;DHT22;10517;50.742;4.224;2022-10-26T09:52:34;19.30;99.90
20712;DHT22;10517;50.742;4.224;2022-10-26T09:54:59;19.40;99.90
20712;DHT22;10517;50.742;4.224;2022-10-26T09:57:25;19.50;99.90
20712;DHT22;10517;50.742;4.224;2022-10-26T09:59:51;19.60;99.90
20712;DHT22;10517;50.742;4.224;2022-10-26T10:02:40;19.50;99.90
20712;DHT22;10517;50.742;4.224;2022-10-26T10:05:35;19.50;99.90
20712;DHT22;10517;50.742;4.224;2022-10-26T10:08:23;19.60;99.90
20712;DHT22;10517;50.742;4.224;2022-10-26T10:10:57;19.60;99.90
20712;DHT22;10517;50.742;4.224;2022-10-26T10:13:28;19.90;99.90
20712;DHT22;10517;50.742;4.224;2022-10-26T10:16:20;20.00;99.90
20712;DHT22;10517;50.742;4.224;2022-10-26T10:18:54;20.00;99.90
20712;DHT22;10517;50.742;4.224;2022-10-26T10:21:20;20.10;99.90
20712;DHT22;10517;50.742;4.224;2022-10-26T10:23:48;20.20;99.90
20712;DHT22;10517;50.742;4.224;2022-10-26T10:26:16;20.20;99.90
20712;DHT22;10517;50.742;4.224;2022-10-26T10:28:42;20.30;99.90
20712;DHT22;10517;50.742;4.224;2022-10-26T10:31:22;20.30;99.90
20712;DHT22;10517;50.742;4.224;2022-10-26T10:33:51;20.30;99.90
20712;DHT22;10517;50.742;4.224;2022-10-26T10:36:19;20.20;99.90
20712;DHT22;10517;50.742;4.224;2022-10-26T10:38:47;20.20;99.90
20712;DHT22;10517;50.742;4.224;2022-10-26T10:41:17;20.30;99.90
20712;DHT22;10517;50.742;4.224;2022-10-26T10:43:46;20.30;99.90
20712;DHT22;10517;50.742;4.224;2022-10-26T10:46:17;20.30;99.90
20712;DHT22;10517;50.742;4.224;2022-10-26T10:48:51;20.30;99.90
20712;DHT22;10517;50.742;4.224;2022-10-26T10:51:20;20.30;99.90
20712;DHT22;10517;50.742;4.224;2022-10-26T10:53:54;20.30;99.90
20712;DHT22;10517;50.742;4.224;2022-10-26T10:56:41;20.30;99.90
20712;DHT22;10517;50.742;4.224;2022-10-26T11:07:06;20.30;99.90
20712;DHT22;10517;50.742;4.224;2022-10-26T11:09:37;20.50;99.90
20712;DHT22;10517;50.742;4.224;2022-10-26T11:12:25;20.50;99.90
20712;DHT22;10517;50.742;4.224;2022-10-26T11:15:13;20.50;99.90
20712;DHT22;10517;50.742;4.224;2022-10-26T11:20:19;20.40;99.90
20712;DHT22;10517;50.742;4.224;2022-10-26T11:23:14;20.50;99.90
20712;DHT22;10517;50.742;4.224;2022-10-26T11:25:50;20.50;99.90
20712;DHT22;10517;50.742;4.224;2022-10-26T11:28:19;20.40;99.90
20712;DHT22;10517;50.742;4.224;2022-10-26T11:30:51;20.60;99.90
20712;DHT22;10517;50.742;4.224;2022-10-26T11:33:32;20.70;99.90
20712;DHT22;10517;50.742;4.224;2022-10-26T11:36:04;20.80;99.90
20712;DHT22;10517;50.742;4.224;2022-10-26T11:38:47;21.00;99.90
20712;DHT22;10517;50.742;4.224;2022-10-26T11:41:21;20.90;99.90
20712;DHT22;10517;50.742;4.224;2022-10-26T11:43:54;21.00;99.90
20712;DHT22;10517;50.742;4.224;2022-10-26T11:52:19;21.40;99.90
20712;DHT22;10517;50.742;4.224;2022-10-26T11:54:54;21.40;99.90
20712;DHT22;10517;50.742;4.224;2022-10-26T11:57:22;21.40;99.90
20712;DHT22;10517;50.742;4.224;2022-10-26T11:59:55;21.50;99.90
20712;DHT22;10517;50.742;4.224;2022-10-26T12:02:23;21.70;99.90
20712;DHT22;10517;50.742;4.224;2022-10-26T12:05:03;21.80;99.90
20712;DHT22;10517;50.742;4.224;2022-10-26T12:07:32;21.80;99.90
20712;DHT22;10517;50.742;4.224;2022-10-26T12:10:01;21.70;99.90
20712;DHT22;10517;50.742;4.224;2022-10-26T12:12:47;21.80;99.90
20712;DHT22;10517;50.742;4.224;2022-10-26T12:18:10;21.80;99.90
20712;DHT22;10517;50.742;4.224;2022-10-26T12:23:28;21.80;99.90
20712;DHT22;10517;50.742;4.224;2022-10-26T12:31:52;22.00;99.90
20712;DHT22;10517;50.742;4.224;2022-10-26T12:39:48;22.30;99.90
20712;DHT22;10517;50.742;4.224;2022-10-26T12:52:58;23.60;99.90
20712;DHT22;10517;50.742;4.224;2022-10-26T12:55:49;24.30;99.90
20712;DHT22;10517;50.742;4.224;2022-10-26T12:58:35;24.80;99.90
20712;DHT22;10517;50.742;4.224;2022-10-26T13:03:45;25.60;99.90
20712;DHT22;10517;50.742;4.224;2022-10-26T13:09:22;26.20;99.90
20712;DHT22;10517;50.742;4.224;2022-10-26T13:11:52;26.30;99.90
20712;DHT22;10517;50.742;4.224;2022-10-26T13:14:22;26.70;99.90
20712;DHT22;10517;50.742;4.224;2022-10-26T13:16:48;26.90;99.90
20712;DHT22;10517;50.742;4.224;2022-10-26T13:19:48;26.80;99.90
20712;DHT22;10517;50.742;4.224;2022-10-26T13:22:19;27.00;99.90
20712;DHT22;10517;50.742;4.224;2022-10-26T13:24:48;27.40;99.90
20712;DHT22;10517;50.742;4.224;2022-10-26T13:32:50;26.30;99.90
20712;DHT22;10517;50.742;4.224;2022-10-26T13:35:17;26.30;99.90
20712;DHT22;10517;50.742;4.224;2022-10-26T13:37:46;26.10;99.90
20712;DHT22;10517;50.742;4.224;2022-10-26T13:40:25;26.50;99.90
20712;DHT22;10517;50.742;4.224;2022-10-26T13:42:54;26.70;99.90
20712;DHT22;10517;50.742;4.224;2022-10-26T13:45:25;26.90;99.90
20712;DHT22;10517;50.742;4.224;2022-10-26T13:48:10;27.00;99.90
20712;DHT22;10517;50.742;4.224;2022-10-26T13:50:52;27.10;99.90
20712;DHT22;10517;50.742;4.224;2022-10-26T13:58:56;27.10;99.90
20712;DHT22;10517;50.742;4.224;2022-10-26T14:01:24;27.10;99.90
20712;DHT22;10517;50.742;4.224;2022-10-26T14:03:50;26.90;99.90
20712;DHT22;10517;50.742;4.224;2022-10-26T14:06:35;26.90;99.90
20712;DHT22;10517;50.742;4.224;2022-10-26T14:09:06;26.70;99.90
20712;DHT22;10517;50.742;4.224;2022-10-26T14:11:47;26.60;99.90
20712;DHT22;10517;50.742;4.224;2022-10-26T14:14:17;26.50;99.90
20712;DHT22;10517;50.742;4.224;2022-10-26T14:16:44;26.40;99.90
20712;DHT22;10517;50.742;4.224;2022-10-26T14:19:31;26.40;99.90
20712;DHT22;10517;50.742;4.224;2022-10-26T14:21:58;26.30;99.90
20712;DHT22;10517;50.742;4.224;2022-10-26T14:24:29;26.20;99.90
20712;DHT22;10517;50.742;4.224;2022-10-26T14:26:55;25.90;99.90
20712;DHT22;10517;50.742;4.224;2022-10-26T14:29:23;25.50;99.90
20712;DHT22;10517;50.742;4.224;2022-10-26T14:31:50;25.30;99.90
20712;DHT22;10517;50.742;4.224;2022-10-26T14:34:16;25.60;99.90
20712;DHT22;10517;50.742;4.224;2022-10-26T14:39:30;26.90;99.90
20712;DHT22;10517;50.742;4.224;2022-10-26T14:41:59;26.70;99.90
20712;DHT22;10517;50.742;4.224;2022-10-26T14:44:26;26.20;99.90
20712;DHT22;10517;50.742;4.224;2022-10-26T14:46:52;25.50;99.90
20712;DHT22;10517;50.742;4.224;2022-10-26T14:49:21;24.90;99.90
20712;DHT22;10517;50.742;4.224;2022-10-26T14:51:48;24.40;99.90
20712;DHT22;10517;50.742;4.224;2022-10-26T14:54:22;24.00;99.90
20712;DHT22;10517;50.742;4.224;2022-10-26T14:56:48;23.60;99.90
20712;DHT22;10517;50.742;4.224;2022-10-26T14:59:21;23.40;99.90
20712;DHT22;10517;50.742;4.224;2022-10-26T15:01:49;23.20;99.90
20712;DHT22;10517;50.742;4.224;2022-10-26T15:04:39;22.90;99.90
20712;DHT22;10517;50.742;4.224;2022-10-26T15:09:40;22.60;99.90
20712;DHT22;10517;50.742;4.224;2022-10-26T15:12:35;22.30;99.90
20712;DHT22;10517;50.742;4.224;2022-10-26T15:17:49;22.30;99.90
20712;DHT22;10517;50.742;4.224;2022-10-26T15:20:19;22.20;99.90
20712;DHT22;10517;50.742;4.224;2022-10-26T15:22:55;22.00;99.90
20712;DHT22;10517;50.742;4.224;2022-10-26T15:25:29;21.80;99.90
20712;DHT22;10517;50.742;4.224;2022-10-26T15:28:21;21.60;99.90
20712;DHT22;10517;50.742;4.224;2022-10-26T15:33:36;21.30;99.90
20712;DHT22;10517;50.742;4.224;2022-10-26T15:36:10;21.30;99.90
20712;DHT22;10517;50.742;4.224;2022-10-26T15:38:37;21.20;99.90
20712;DHT22;10517;50.742;4.224;2022-10-26T15:41:03;21.20;99.90
20712;DHT22;10517;50.742;4.224;2022-10-26T15:43:30;21.10;99.90
20712;DHT22;10517;50.742;4.224;2022-10-26T15:45:56;21.00;99.90
20712;DHT22;10517;50.742;4.224;2022-10-26T15:48:26;20.90;99.90
20712;DHT22;10517;50.742;4.224;2022-10-26T15:50:56;20.90;99.90
20712;DHT22;10517;50.742;4.224;2022-10-26T15:53:24;20.70;99.90
20712;DHT22;10517;50.742;4.224;2022-10-26T15:55:54;20.70;99.90
20712;DHT22;10517;50.742;4.224;2022-10-26T15:58:21;20.60;99.90
20712;DHT22;10517;50.742;4.224;2022-10-26T16:00:47;20.40;99.90
20712;DHT22;10517;50.742;4.224;2022-10-26T16:03:15;20.30;99.90
20712;DHT22;10517;50.742;4.224;2022-10-26T16:05:41;20.20;99.90
20712;DHT22;10517;50.742;4.224;2022-10-26T16:08:15;20.10;99.90
20712;DHT22;10517;50.742;4.224;2022-10-26T16:10:42;20.00;99.90
20712;DHT22;10517;50.742;4.224;2022-10-26T16:13:11;20.00;99.90
20712;DHT22;10517;50.742;4.224;2022-10-26T16:15:37;19.90;99.90
20712;DHT22;10517;50.742;4.224;2022-10-26T16:18:04;19.80;99.90
20712;DHT22;10517;50.742;4.224;2022-10-26T16:20:29;19.70;99.90
20712;DHT22;10517;50.742;4.224;2022-10-26T16:22:55;19.70;99.90
20712;DHT22;10517;50.742;4.224;2022-10-26T16:25:24;19.60;99.90
20712;DHT22;10517;50.742;4.224;2022-10-26T16:27:51;19.60;99.90
20712;DHT22;10517;50.742;4.224;2022-10-26T16:30:17;19.60;99.90
20712;DHT22;10517;50.742;4.224;2022-10-26T16:32:43;19.50;99.90
20712;DHT22;10517;50.742;4.224;2022-10-26T16:35:10;19.50;99.90
20712;DHT22;10517;50.742;4.224;2022-10-26T16:37:36;19.40;99.90
20712;DHT22;10517;50.742;4.224;2022-10-26T16:40:03;19.30;99.90
20712;DHT22;10517;50.742;4.224;2022-10-26T16:42:30;19.20;99.90
20712;DHT22;10517;50.742;4.224;2022-10-26T16:44:55;19.10;99.90
20712;DHT22;10517;50.742;4.224;2022-10-26T16:47:21;19.00;99.90
20712;DHT22;10517;50.742;4.224;2022-10-26T16:49:47;18.90;99.90
20712;DHT22;10517;50.742;4.224;2022-10-26T16:52:12;18.80;99.90
20712;DHT22;10517;50.742;4.224;2022-10-26T16:54:38;18.90;99.90
20712;DHT22;10517;50.742;4.224;2022-10-26T16:57:04;18.80;99.90
20712;DHT22;10517;50.742;4.224;2022-10-26T16:59:29;18.70;99.90
20712;DHT22;10517;50.742;4.224;2022-10-26T17:01:55;18.70;99.90
20712;DHT22;10517;50.742;4.224;2022-10-26T17:04:20;18.60;99.90
20712;DHT22;10517;50.742;4.224;2022-10-26T17:06:46;18.50;99.90
20712;DHT22;10517;50.742;4.224;2022-10-26T17:09:12;18.50;99.90
20712;DHT22;10517;50.742;4.224;2022-10-26T17:11:39;18.50;99.90
20712;DHT22;10517;50.742;4.224;2022-10-26T17:14:05;18.50;99.90
20712;DHT22;10517;50.742;4.224;2022-10-26T17:16:30;18.40;99.90
20712;DHT22;10517;50.742;4.224;2022-10-26T17:18:56;18.40;99.90
20712;DHT22;10517;50.742;4.224;2022-10-26T17:21:33;18.30;99.90
20712;DHT22;10517;50.742;4.224;2022-10-26T17:23:59;18.30;99.90
20712;DHT22;10517;50.742;4.224;2022-10-26T17:26:26;18.10;99.90
20712;DHT22;10517;50.742;4.224;2022-10-26T17:28:52;18.10;99.90
20712;DHT22;10517;50.742;4.224;2022-10-26T17:31:19;18.00;99.90
20712;DHT22;10517;50.742;4.224;2022-10-26T17:33:44;18.00;99.90
20712;DHT22;10517;50.742;4.224;2022-10-26T17:36:12;18.10;99.90
20712;DHT22;10517;50.742;4.224;2022-10-26T17:38:41;18.10;99.90
20712;DHT22;10517;50.742;4.224;2022-10-26T17:41:09;18.20;99.90
20712;DHT22;10517;50.742;4.224;2022-10-26T17:43:37;18.30;99.90
20712;DHT22;10517;50.742;4.224;2022-10-26T17:46:14;18.20;99.90
20712;DHT22;10517;50.742;4.224;2022-10-26T17:48:40;18.40;99.90
20712;DHT22;10517;50.742;4.224;2022-10-26T17:51:17;18.60;99.90
20712;DHT22;10517;50.742;4.224;2022-10-26T17:53:45;18.60;99.90
20712;DHT22;10517;50.742;4.224;2022-10-26T17:58:39;18.30;99.90
20712;DHT22;10517;50.742;4.224;2022-10-26T18:01:07;18.10;99.90